createdAt,value
2018-08-11T00:02:14.172Z,98680.05
2018-08-11T00:04:43.067Z,98681.02
2018-08-11T00:07:11.748Z,98681.84
2018-08-11T00:09:40.681Z,98678.82
2018-08-11T00:12:09.552Z,98682.17
2018-08-11T00:14:38.491Z,98674.42
2018-08-11T00:17:07.642Z,98677.20
2018-08-11T00:19:36.283Z,98678.97
2018-08-11T00:22:04.882Z,98678.70
2018-08-11T00:24:33.572Z,98683.41
2018-08-11T00:27:02.581Z,98688.94
2018-08-11T00:29:31.711Z,98685.00
2018-08-11T00:32:00.624Z,98689.20
2018-08-11T00:34:29.917Z,98696.59
2018-08-11T00:36:59.411Z,98690.65
2018-08-11T00:39:28.081Z,98699.21
2018-08-11T00:41:56.843Z,98693.46
2018-08-11T00:44:25.573Z,98695.63
2018-08-11T00:46:54.324Z,98689.70
2018-08-11T00:49:23.996Z,98698.35
2018-08-11T00:51:52.803Z,98689.84
2018-08-11T00:54:22.162Z,98701.16
2018-08-11T00:56:50.937Z,98703.92
2018-08-11T00:59:20.478Z,98703.28
2018-08-11T01:01:49.257Z,98699.75
2018-08-11T01:04:18.001Z,98700.30
2018-08-11T01:06:46.849Z,98706.23
2018-08-11T01:09:16.399Z,98705.19
2018-08-11T01:11:45.257Z,98700.52
2018-08-11T01:14:13.968Z,98710.58
2018-08-11T01:16:43.108Z,98703.02
2018-08-11T01:19:11.781Z,98701.55
2018-08-11T01:21:40.530Z,98705.28
2018-08-11T01:24:09.398Z,98703.46
2018-08-11T01:26:38.038Z,98709.97
2018-08-11T01:29:07.373Z,98707.66
2018-08-11T01:31:36.149Z,98709.70
2018-08-11T01:34:05.687Z,98711.69
2018-08-11T01:36:34.552Z,98713.68
2018-08-11T01:39:04.479Z,98711.27
2018-08-11T01:41:34.368Z,98713.09
2018-08-11T01:44:03.262Z,98703.43
2018-08-11T01:46:32.084Z,98707.23
2018-08-11T01:49:02.123Z,98706.08
2018-08-11T01:51:31.422Z,98711.77
2018-08-11T01:54:00.148Z,98709.65
2018-08-11T01:56:28.838Z,98708.59
2018-08-11T01:58:57.982Z,98708.72
2018-08-11T02:01:26.802Z,98709.03
2018-08-11T02:03:55.628Z,98707.73
2018-08-11T02:06:24.775Z,98715.52
2018-08-11T02:08:53.498Z,98714.69
2018-08-11T02:11:22.958Z,98714.23
2018-08-11T02:13:52.238Z,98710.08
2018-08-11T02:16:20.918Z,98709.05
2018-08-11T02:18:49.744Z,98711.61
2018-08-11T02:21:18.669Z,98713.81
2018-08-11T02:23:48.019Z,98718.20
2018-08-11T02:26:16.664Z,98715.88
2018-08-11T02:28:45.375Z,98719.29
2018-08-11T02:31:14.005Z,98719.55
2018-08-11T02:33:42.772Z,98718.02
2018-08-11T02:36:11.493Z,98718.66
2018-08-11T02:38:40.467Z,98716.03
2018-08-11T02:41:09.854Z,98712.73
2018-08-11T02:43:38.853Z,98716.53
2018-08-11T02:46:07.437Z,98712.23
2018-08-11T02:48:36.095Z,98715.48
2018-08-11T02:51:04.769Z,98709.79
2018-08-11T02:53:33.647Z,98716.38
2018-08-11T02:56:03.169Z,98718.15
2018-08-11T02:58:32.343Z,98718.45
2018-08-11T03:01:00.929Z,98724.97
2018-08-11T03:03:30.007Z,98722.83
2018-08-11T03:05:58.732Z,98716.05
2018-08-11T03:08:27.508Z,98717.41
2018-08-11T03:10:56.728Z,98719.41
2018-08-11T03:13:26.118Z,98723.02
2018-08-11T03:15:55.057Z,98723.62
2018-08-11T03:18:23.928Z,98725.36
2018-08-11T03:20:52.515Z,98726.55
2018-08-11T03:23:21.434Z,98730.34
2018-08-11T03:25:50.901Z,98733.63
2018-08-11T03:28:19.566Z,98731.77
2018-08-11T03:30:48.403Z,98734.27
2018-08-11T03:33:17.518Z,98729.42
2018-08-11T03:35:46.489Z,98730.06
2018-08-11T03:38:15.210Z,98735.45
2018-08-11T03:40:44.212Z,98742.20
2018-08-11T03:43:12.869Z,98735.72
2018-08-11T03:45:41.505Z,98738.77
2018-08-11T03:48:10.193Z,98734.52
2018-08-11T03:50:39.152Z,98740.73
2018-08-11T03:53:07.724Z,98740.45
2018-08-11T03:55:36.617Z,98744.58
2018-08-11T03:58:06.330Z,98742.50
2018-08-11T04:00:35.229Z,98745.52
2018-08-11T04:03:04.039Z,98747.98
2018-08-11T04:05:32.749Z,98748.02
2018-08-11T04:08:02.054Z,98745.13
2018-08-11T04:10:30.993Z,98750.84
2018-08-11T04:13:00.398Z,98749.19
2018-08-11T04:15:29.201Z,98752.95
2018-08-11T04:17:57.964Z,98757.80
2018-08-11T04:20:26.567Z,98764.55
2018-08-11T04:22:55.219Z,98766.98
2018-08-11T04:25:23.899Z,98767.23
2018-08-11T04:27:52.548Z,98769.64
2018-08-11T04:30:21.092Z,98771.00
2018-08-11T04:32:50.408Z,98768.83
2018-08-11T04:35:19.009Z,98775.04
2018-08-11T04:37:48.859Z,98778.23
2018-08-11T04:40:17.935Z,98781.64
2018-08-11T04:42:47.737Z,98777.19
2018-08-11T04:45:17.289Z,98777.27
2018-08-11T04:47:46.128Z,98783.02
2018-08-11T04:50:14.787Z,98786.13
2018-08-11T04:52:43.595Z,98778.33
2018-08-11T04:55:12.274Z,98783.48
2018-08-11T04:57:41.279Z,98790.47
2018-08-11T05:00:09.869Z,98796.02
2018-08-11T05:02:38.611Z,98793.92
2018-08-11T05:05:07.918Z,98797.22
2018-08-11T05:07:36.759Z,98798.20
2018-08-11T05:10:06.133Z,98810.39
2018-08-11T05:12:34.797Z,98807.13
2018-08-11T05:15:04.047Z,98802.59
2018-08-11T05:17:32.745Z,98807.61
2018-08-11T05:20:01.582Z,98808.42
2018-08-11T05:22:30.213Z,98811.92
2018-08-11T05:24:58.918Z,98812.49
2018-08-11T05:27:28.242Z,98809.34
2018-08-11T05:29:57.423Z,98822.48
2018-08-11T05:32:26.031Z,98815.95
2018-08-11T05:34:56.085Z,98816.55
2018-08-11T05:37:25.054Z,98824.50
2018-08-11T05:39:53.682Z,98826.06
2018-08-11T05:42:22.501Z,98828.95
2018-08-11T05:44:51.528Z,98823.70
2018-08-11T05:47:20.140Z,98823.31
2018-08-11T05:49:48.785Z,98834.25
2018-08-11T05:52:17.664Z,98829.30
2018-08-11T05:54:46.419Z,98831.44
2018-08-11T05:57:15.907Z,98832.23
2018-08-11T05:59:44.488Z,98832.66
2018-08-11T06:02:13.383Z,98834.66
2018-08-11T06:04:42.273Z,98840.57
2018-08-11T06:07:10.891Z,98838.06
2018-08-11T06:09:39.885Z,98838.41
2018-08-11T06:12:08.649Z,98836.25
2018-08-11T06:14:37.685Z,98831.85
2018-08-11T06:17:06.971Z,98830.08
2018-08-11T06:19:35.650Z,98837.74
2018-08-11T06:22:04.519Z,98835.43
2018-08-11T06:24:33.404Z,98838.94
2018-08-11T06:27:02.039Z,98843.65
2018-08-11T06:29:30.920Z,98846.45
2018-08-11T06:32:00.498Z,98839.55
2018-08-11T06:34:29.314Z,98845.63
2018-08-11T06:36:58.163Z,98843.63
2018-08-11T06:39:26.853Z,98845.70
2018-08-11T06:41:55.682Z,98844.77
2018-08-11T06:44:24.467Z,98848.52
2018-08-11T06:46:53.211Z,98846.26
2018-08-11T06:49:21.893Z,98845.56
2018-08-11T06:51:50.588Z,98847.25
2018-08-11T06:54:19.238Z,98847.95
2018-08-11T06:56:48.598Z,98847.72
2018-08-11T06:59:17.723Z,98844.02
2018-08-11T07:01:46.948Z,98852.00
2018-08-11T07:04:15.569Z,98855.52
2018-08-11T07:06:44.589Z,98850.22
2018-08-11T07:09:13.465Z,98854.70
2018-08-11T07:11:42.523Z,98850.99
2018-08-11T07:14:11.325Z,98850.19
2018-08-11T07:16:40.260Z,98841.58
2018-08-11T07:19:09.471Z,98848.59
2018-08-11T07:21:38.260Z,98843.00
2018-08-11T07:24:06.978Z,98850.19
2018-08-11T07:26:36.608Z,98844.78
2018-08-11T07:29:05.199Z,98847.05
2018-08-11T07:31:33.823Z,98848.35
2018-08-11T07:34:02.992Z,98846.62
2018-08-11T07:36:31.688Z,98847.06
2018-08-11T07:39:00.314Z,98841.45
2018-08-11T07:41:29.684Z,98838.28
2018-08-11T07:43:58.320Z,98832.88
2018-08-11T07:46:27.170Z,98829.23
2018-08-11T07:48:56.439Z,98836.31
2018-08-11T07:51:25.114Z,98831.34
2018-08-11T07:53:54.667Z,98829.23
2018-08-11T07:56:23.303Z,98838.16
2018-08-11T07:58:52.119Z,98830.75
2018-08-11T08:01:21.052Z,98830.39
2018-08-11T08:03:49.846Z,98832.12
2018-08-11T08:06:18.733Z,98833.14
2018-08-11T08:08:47.754Z,98829.27
2018-08-11T08:11:17.264Z,98830.13
2018-08-11T08:13:46.362Z,98825.75
2018-08-11T08:16:14.925Z,98817.77
2018-08-11T08:18:43.969Z,98821.77
2018-08-11T08:21:12.906Z,98827.97
2018-08-11T08:23:42.524Z,98823.27
2018-08-11T08:26:11.324Z,98819.84
2018-08-11T08:28:39.919Z,98818.50
2018-08-11T08:31:08.554Z,98821.38
2018-08-11T08:33:37.321Z,98815.75
2018-08-11T08:36:06.579Z,98810.81
2018-08-11T08:38:35.566Z,98811.08
2018-08-11T08:41:04.350Z,98812.45
2018-08-11T08:43:33.030Z,98815.14
2018-08-11T08:46:02.555Z,98809.31
2018-08-11T08:48:31.736Z,98810.27
2018-08-11T08:51:01.020Z,98807.75
2018-08-11T08:53:30.194Z,98813.71
2018-08-11T08:55:59.015Z,98810.59
2018-08-11T08:58:27.656Z,98805.35
2018-08-11T09:00:56.363Z,98802.72
2018-08-11T09:03:25.052Z,98803.19
2018-08-11T09:05:54.800Z,98805.97
2018-08-11T09:08:23.855Z,98800.36
2018-08-11T09:10:52.907Z,98803.48
2018-08-11T09:13:21.725Z,98802.09
2018-08-11T09:15:50.411Z,98794.17
2018-08-11T09:18:19.127Z,98799.27
2018-08-11T09:20:47.881Z,98791.05
2018-08-11T09:23:16.646Z,98792.61
2018-08-11T09:25:45.246Z,98801.62
2018-08-11T09:28:14.578Z,98797.44
2018-08-11T09:30:43.600Z,98794.16
2018-08-11T09:33:12.494Z,98792.49
2018-08-11T09:35:41.767Z,98792.25
2018-08-11T09:38:10.545Z,98794.77
2018-08-11T09:40:39.639Z,98791.95
2018-08-11T09:43:08.805Z,98787.98
2018-08-11T09:45:37.836Z,98782.18
2018-08-11T09:48:06.474Z,98790.17
2018-08-11T09:50:36.614Z,98776.11
2018-08-11T09:53:05.814Z,98781.74
2018-08-11T09:55:34.517Z,98784.83
2018-08-11T09:58:04.017Z,98783.11
2018-08-11T10:00:37.946Z,98779.00
2018-08-11T10:03:06.560Z,98777.44
2018-08-11T10:05:35.871Z,98776.85
2018-08-11T10:08:04.726Z,98775.63
2018-08-11T10:10:33.329Z,98771.09
2018-08-11T10:13:02.259Z,98778.11
2018-08-11T10:15:31.816Z,98778.97
2018-08-11T10:18:00.616Z,98768.70
2018-08-11T10:20:29.435Z,98767.13
2018-08-11T10:22:58.209Z,98768.26
2018-08-11T10:25:27.239Z,98763.61
2018-08-11T10:27:56.024Z,98761.05
2018-08-11T10:30:24.996Z,98770.73
2018-08-11T10:32:54.264Z,98769.52
2018-08-11T10:35:23.081Z,98772.09
2018-08-11T10:37:52.638Z,98776.70
2018-08-11T10:40:21.618Z,98760.26
2018-08-11T10:42:50.274Z,98757.71
2018-08-11T10:45:19.252Z,98763.80
2018-08-11T10:47:48.152Z,98757.61
2018-08-11T10:50:17.760Z,98755.75
2018-08-11T10:52:46.678Z,98759.55
2018-08-11T10:55:15.489Z,98761.83
2018-08-11T10:57:44.414Z,98757.98
2018-08-11T11:00:13.818Z,98756.31
2018-08-11T11:02:42.800Z,98764.20
2018-08-11T11:05:12.177Z,98757.71
2018-08-11T11:07:41.272Z,98749.53
2018-08-11T11:10:10.181Z,98750.97
2018-08-11T11:12:38.910Z,98760.09
2018-08-11T11:15:08.356Z,98758.86
2018-08-11T11:17:37.277Z,98755.09
2018-08-11T11:20:08.485Z,98750.31
2018-08-11T11:22:37.641Z,98744.67
2018-08-11T11:25:06.860Z,98739.88
2018-08-11T11:27:35.855Z,98742.24
2018-08-11T11:30:05.259Z,98730.03
2018-08-11T11:32:34.165Z,98735.09
2018-08-11T11:35:03.047Z,98729.89
2018-08-11T11:37:31.950Z,98732.84
2018-08-11T11:40:01.076Z,98731.80
2018-08-11T11:42:30.541Z,98727.98
2018-08-11T11:44:59.392Z,98716.47
2018-08-11T11:47:28.118Z,98715.05
2018-08-11T11:49:57.306Z,98709.89
2018-08-11T11:52:26.020Z,98713.25
2018-08-11T11:54:55.480Z,98709.52
2018-08-11T11:57:24.414Z,98713.35
2018-08-11T11:59:54.093Z,98703.70
2018-08-11T12:02:22.870Z,98695.23
2018-08-11T12:04:52.442Z,98695.67
2018-08-11T12:07:21.101Z,98697.52
2018-08-11T12:09:49.944Z,98702.69
2018-08-11T12:12:18.900Z,98696.95
2018-08-11T12:14:48.616Z,98699.22
2018-08-11T12:17:17.756Z,98690.67
2018-08-11T12:19:46.772Z,98689.69
2018-08-11T12:22:16.117Z,98686.95
2018-08-11T12:24:44.932Z,98688.64
2018-08-11T12:27:14.582Z,98689.48
2018-08-11T12:29:43.370Z,98684.00
2018-08-11T12:32:13.272Z,98678.33
2018-08-11T12:34:42.165Z,98681.56
2018-08-11T12:37:11.134Z,98677.64
2018-08-11T12:39:39.972Z,98675.34
2018-08-11T12:42:08.764Z,98673.03
2018-08-11T12:44:37.935Z,98672.38
2018-08-11T12:47:07.388Z,98670.31
2018-08-11T12:49:36.147Z,98662.38
2018-08-11T12:52:05.771Z,98665.31
2018-08-11T12:54:34.882Z,98659.58
2018-08-11T12:57:03.657Z,98658.13
2018-08-11T12:59:32.404Z,98660.21
2018-08-11T13:02:01.642Z,98654.78
2018-08-11T13:04:30.491Z,98654.27
2018-08-11T13:06:59.191Z,98651.94
2018-08-11T13:09:28.346Z,98651.62
2018-08-11T13:11:57.367Z,98652.15
2018-08-11T13:14:26.058Z,98644.27
2018-08-11T13:16:54.967Z,98644.56
2018-08-11T13:19:24.892Z,98633.70
2018-08-11T13:21:53.579Z,98634.25
2018-08-11T13:24:22.274Z,98633.41
2018-08-11T13:26:51.101Z,98637.19
2018-08-11T13:29:20.161Z,98626.48
2018-08-11T13:31:49.527Z,98619.97
2018-08-11T13:34:18.432Z,98617.45
2018-08-11T13:36:47.840Z,98624.59
2018-08-11T13:39:16.522Z,98616.11
2018-08-11T13:41:48.482Z,98617.31
2018-08-11T13:44:18.986Z,98614.50
2018-08-11T13:46:47.712Z,98606.83
2018-08-11T13:49:16.522Z,98607.26
2018-08-11T13:51:46.000Z,98605.93
2018-08-11T13:54:14.666Z,98607.66
2018-08-11T13:56:43.485Z,98604.46
2018-08-11T13:59:12.356Z,98602.79
2018-08-11T14:01:41.104Z,98605.26
2018-08-11T14:04:09.863Z,98593.88
2018-08-11T14:06:39.375Z,98596.30
2018-08-11T14:09:08.953Z,98597.39
2018-08-11T14:11:38.017Z,98600.47
2018-08-11T14:14:06.777Z,98601.80
2018-08-11T14:16:35.633Z,98601.97
2018-08-11T14:19:05.593Z,98590.87
2018-08-11T14:21:34.846Z,98595.67
2018-08-11T14:24:03.948Z,98597.96
2018-08-11T14:26:32.906Z,98597.13
2018-08-11T14:29:02.573Z,98574.44
2018-08-11T14:31:31.501Z,98583.35
2018-08-11T14:34:00.976Z,98584.18
2018-08-11T14:36:30.152Z,98586.73
2018-08-11T14:38:58.256Z,98586.31
2018-08-11T14:41:26.486Z,98587.11
2018-08-11T14:43:54.708Z,98590.03
2018-08-11T14:46:23.808Z,98582.58
2018-08-11T14:48:51.872Z,98584.17
2018-08-11T14:51:19.692Z,98577.79
2018-08-11T14:53:47.819Z,98575.66
2018-08-11T14:56:16.050Z,98579.59
2018-08-11T14:58:44.217Z,98578.67
2018-08-11T15:01:12.628Z,98577.11
2018-08-11T15:03:40.416Z,98569.56
2018-08-11T15:06:09.258Z,98563.98
2018-08-11T15:08:37.308Z,98558.84
2018-08-11T15:11:06.441Z,98554.44
2018-08-11T15:13:34.757Z,98558.00
2018-08-11T15:16:03.335Z,98559.59
2018-08-11T15:18:31.978Z,98559.38
2018-08-11T15:21:01.703Z,98549.86
2018-08-11T15:23:30.221Z,98549.67
2018-08-11T15:25:59.102Z,98557.27
2018-08-11T15:28:27.137Z,98552.72
2018-08-11T15:30:55.290Z,98552.91
2018-08-11T15:33:23.692Z,98555.66
2018-08-11T15:35:51.757Z,98549.91
2018-08-11T15:38:19.668Z,98549.11
2018-08-11T15:40:47.784Z,98542.97
2018-08-11T15:43:15.992Z,98545.34
2018-08-11T15:45:43.982Z,98542.17
2018-08-11T15:48:17.683Z,98537.61
2018-08-11T15:50:46.586Z,98539.81
2018-08-11T15:53:14.462Z,98535.45
2018-08-11T15:55:42.617Z,98529.69
2018-08-11T15:58:11.117Z,98533.84
2018-08-11T16:00:39.222Z,98527.89
2018-08-11T16:03:07.132Z,98525.13
2018-08-11T16:05:36.575Z,98522.13
2018-08-11T16:08:05.923Z,98522.34
2018-08-11T16:10:35.203Z,98515.20
2018-08-11T16:13:04.437Z,98522.75
2018-08-11T16:15:33.833Z,98513.82
2018-08-11T16:18:03.128Z,98518.17
2018-08-11T16:20:32.617Z,98530.17
2018-08-11T16:23:01.425Z,98525.05
2018-08-11T16:25:30.787Z,98525.80
2018-08-11T16:28:00.157Z,98518.50
2018-08-11T16:30:28.902Z,98521.81
2018-08-11T16:32:58.563Z,98522.12
2018-08-11T16:35:27.840Z,98522.63
2018-08-11T16:37:56.934Z,98520.30
2018-08-11T16:40:26.093Z,98523.55
2018-08-11T16:42:55.055Z,98515.99
2018-08-11T16:45:23.967Z,98520.45
2018-08-11T16:47:52.902Z,98523.55
2018-08-11T16:50:21.849Z,98523.93
2018-08-11T16:52:50.668Z,98520.52
2018-08-11T16:55:19.365Z,98520.38
2018-08-11T16:57:48.139Z,98526.03
2018-08-11T17:00:16.808Z,98524.06
2018-08-11T17:02:45.901Z,98526.03
2018-08-11T17:05:14.851Z,98523.83
2018-08-11T17:07:43.658Z,98527.12
2018-08-11T17:10:12.591Z,98529.28
2018-08-11T17:12:41.931Z,98529.73
2018-08-11T17:15:11.295Z,98525.41
2018-08-11T17:17:40.210Z,98525.12
2018-08-11T17:20:09.130Z,98523.08
2018-08-11T17:22:38.381Z,98524.59
2018-08-11T17:25:08.016Z,98531.00
2018-08-11T17:27:36.761Z,98524.63
2018-08-11T17:30:06.266Z,98528.05
2018-08-11T17:32:35.776Z,98530.39
2018-08-11T17:35:04.426Z,98529.48
2018-08-11T17:37:33.222Z,98535.38
2018-08-11T17:40:02.377Z,98531.88
2018-08-11T17:42:31.091Z,98535.91
2018-08-11T17:44:59.813Z,98527.91
2018-08-11T17:47:28.858Z,98532.89
2018-08-11T17:49:57.618Z,98527.11
2018-08-11T17:52:26.521Z,98531.44
2018-08-11T17:54:55.326Z,98525.95
2018-08-11T17:57:26.094Z,98533.50
2018-08-11T17:59:53.996Z,98532.92
2018-08-11T18:02:23.548Z,98534.02
2018-08-11T18:04:52.262Z,98536.95
2018-08-11T18:07:21.058Z,98534.77
2018-08-11T18:09:49.767Z,98539.80
2018-08-11T18:12:18.548Z,98537.87
2018-08-11T18:14:46.415Z,98534.07
2018-08-11T18:17:15.668Z,98532.15
2018-08-11T18:19:44.653Z,98534.23
2018-08-11T18:22:14.388Z,98539.05
2018-08-11T18:24:43.359Z,98536.53
2018-08-11T18:27:12.693Z,98532.18
2018-08-11T18:29:41.599Z,98538.45
2018-08-11T18:32:10.279Z,98538.46
2018-08-11T18:34:39.302Z,98548.48
2018-08-11T18:37:08.539Z,98557.98
2018-08-11T18:39:36.373Z,98553.01
2018-08-11T18:42:05.096Z,98550.24
2018-08-11T18:44:33.943Z,98554.38
2018-08-11T18:47:03.445Z,98550.70
2018-08-11T18:49:32.787Z,98551.79
2018-08-11T18:52:02.007Z,98557.57
2018-08-11T18:54:30.824Z,98567.55
2018-08-11T18:57:00.469Z,98565.48
2018-08-11T18:59:29.241Z,98565.81
2018-08-11T19:01:58.919Z,98560.59
2018-08-11T19:04:28.024Z,98562.53
2018-08-11T19:06:57.266Z,98564.70
2018-08-11T19:09:26.452Z,98565.25
2018-08-11T19:11:55.681Z,98570.42
2018-08-11T19:14:25.388Z,98564.01
2018-08-11T19:16:54.347Z,98565.66
2018-08-11T19:19:23.394Z,98573.02
2018-08-11T19:21:52.833Z,98580.29
2018-08-11T19:24:22.277Z,98578.80
2018-08-11T19:26:51.208Z,98583.64
2018-08-11T19:29:20.368Z,98588.59
2018-08-11T19:31:49.527Z,98585.97
2018-08-11T19:34:18.610Z,98589.88
2018-08-11T19:36:47.930Z,98596.87
2018-08-11T19:39:17.161Z,98596.93
2018-08-11T19:41:46.604Z,98597.40
2018-08-11T19:44:15.658Z,98597.72
2018-08-11T19:46:44.916Z,98598.19
2018-08-11T19:49:14.253Z,98598.53
2018-08-11T19:51:43.404Z,98593.02
2018-08-11T19:54:12.410Z,98602.56
2018-08-11T19:56:41.822Z,98601.44
2018-08-11T19:59:10.727Z,98607.52
2018-08-11T20:01:39.683Z,98605.86
2018-08-11T20:04:08.657Z,98599.88
2018-08-11T20:06:37.784Z,98607.78
2018-08-11T20:09:09.166Z,98607.66
2018-08-11T20:11:38.596Z,98612.05
2018-08-11T20:14:07.272Z,98599.70
2018-08-11T20:16:36.453Z,98605.62
2018-08-11T20:19:05.728Z,98615.78
2018-08-11T20:21:34.986Z,98619.53
2018-08-11T20:24:04.087Z,98616.53
2018-08-11T20:26:33.434Z,98617.92
2018-08-11T20:29:02.327Z,98618.45
2018-08-11T20:31:31.056Z,98622.25
2018-08-11T20:33:59.987Z,98619.05
2018-08-11T20:36:29.220Z,98617.59
2018-08-11T20:38:58.401Z,98616.91
2018-08-11T20:41:28.044Z,98617.97
2018-08-11T20:43:56.983Z,98616.80
2018-08-11T20:46:25.754Z,98623.13
2018-08-11T20:48:54.424Z,98622.31
2018-08-11T20:51:23.607Z,98621.02
2018-08-11T20:53:52.399Z,98621.20
2018-08-11T20:56:21.084Z,98624.57
2018-08-11T20:58:49.842Z,98633.16
2018-08-11T21:01:18.683Z,98630.28
2018-08-11T21:03:47.419Z,98631.80
2018-08-11T21:06:16.997Z,98633.72
2018-08-11T21:08:46.108Z,98635.47
2018-08-11T21:11:15.473Z,98637.16
2018-08-11T21:13:44.684Z,98634.73
2018-08-11T21:16:13.978Z,98641.64
2018-08-11T21:18:42.878Z,98642.77
2018-08-11T21:21:13.349Z,98636.48
2018-08-11T21:23:42.163Z,98640.12
2018-08-11T21:26:10.919Z,98634.09
2018-08-11T21:28:40.039Z,98637.27
2018-08-11T21:31:08.827Z,98635.36
2018-08-11T21:33:38.394Z,98642.79
2018-08-11T21:36:07.767Z,98643.66
2018-08-11T21:38:36.554Z,98638.53
2018-08-11T21:41:05.304Z,98639.14
2018-08-11T21:43:34.105Z,98636.50
2018-08-11T21:46:03.139Z,98636.33
2018-08-11T21:48:31.872Z,98643.63
2018-08-11T21:51:00.648Z,98640.59
2018-08-11T21:53:30.128Z,98634.60
2018-08-11T21:55:58.897Z,98637.81
2018-08-11T21:58:27.837Z,98628.00
2018-08-11T22:01:05.908Z,98630.64
2018-08-11T22:03:34.713Z,98629.97
2018-08-11T22:06:03.428Z,98626.30
2018-08-11T22:08:32.389Z,98622.04
2018-08-11T22:11:01.199Z,98617.27
2018-08-11T22:13:29.970Z,98620.09
2018-08-11T22:15:58.803Z,98622.32
2018-08-11T22:18:27.445Z,98620.09
2018-08-11T22:20:56.048Z,98618.44
2018-08-11T22:23:24.808Z,98616.38
2018-08-11T22:25:53.639Z,98614.41
2018-08-11T22:28:22.450Z,98611.19
2018-08-11T22:30:51.514Z,98615.30
2018-08-11T22:33:20.679Z,98613.89
2018-08-11T22:35:50.081Z,98611.98
2018-08-11T22:38:19.163Z,98607.59
2018-08-11T22:40:48.004Z,98610.39
2018-08-11T22:43:16.724Z,98607.59
2018-08-11T22:45:45.543Z,98604.09
2018-08-11T22:48:14.361Z,98613.25
2018-08-11T22:50:43.004Z,98607.47
2018-08-11T22:53:11.753Z,98611.63
2018-08-11T22:55:40.858Z,98618.56
2018-08-11T22:58:09.734Z,98610.09
2018-08-11T23:00:39.238Z,98608.55
2018-08-11T23:03:08.488Z,98599.41
2018-08-11T23:05:37.888Z,98606.06
2018-08-11T23:08:07.029Z,98603.58
2018-08-11T23:10:35.818Z,98598.37
2018-08-11T23:13:04.514Z,98601.95
2018-08-11T23:15:33.309Z,98599.19
2018-08-11T23:18:02.028Z,98600.64
2018-08-11T23:20:31.009Z,98592.08
2018-08-11T23:23:00.514Z,98593.70
2018-08-11T23:25:29.762Z,98587.59
2018-08-11T23:27:58.373Z,98587.86
2018-08-11T23:30:27.068Z,98591.43
2018-08-11T23:32:56.317Z,98583.73
2018-08-11T23:35:25.408Z,98580.14
2018-08-11T23:37:55.661Z,98582.39
2018-08-11T23:40:24.430Z,98576.73
2018-08-11T23:42:53.098Z,98578.08
2018-08-11T23:45:22.195Z,98579.02
2018-08-11T23:47:51.530Z,98575.42
2018-08-11T23:50:20.655Z,98572.01
2018-08-11T23:52:50.049Z,98566.23
2018-08-11T23:55:19.334Z,98561.86
2018-08-11T23:57:48.444Z,98560.81
